Terminal Aerodrome Forecast
Issued by NWS

Home | Current Version | Previous Version | Text Only | Print | Product List | Glossary On
Versions: 1 2 3 4 5 6 7 8 9 10 11 12 13 14 15 16 17 18 19
000
FTUS44 KHGX 161720
TAFCXO
TAF
KCXO 161720Z 1618/1718 14011KT P6SM SCT250
     FM162100 15010KT P6SM FEW040 SCT250
     FM170100 14007KT P6SM SCT025 SCT250
     FM170600 13005KT 6SM BR FEW005 BKN015 BKN025
     FM170900 12003KT 4SM BR SCT005 BKN015 BKN025
     FM171500 10006KT P6SM SCT015 BKN035 BKN080=

USA.gov is the U.S. government's official web portal to all federal, state and local government web resources and services.